createdAt,value
2022-08-30T00:00:26.238Z,33.97
2022-08-30T00:02:55.970Z,31.35
2022-08-30T00:05:26.015Z,32.67
2022-08-30T00:07:56.914Z,35.20
2022-08-30T00:10:26.886Z,38.42
2022-08-30T00:12:56.747Z,42.50
2022-08-30T00:15:26.538Z,44.88
2022-08-30T00:17:57.218Z,44.72
2022-08-30T00:20:27.937Z,38.88
2022-08-30T00:22:57.950Z,50.75
2022-08-30T00:25:27.544Z,46.05
2022-08-30T00:27:57.238Z,38.28
2022-08-30T00:30:26.950Z,45.22
2022-08-30T00:32:56.613Z,38.50
2022-08-30T00:35:26.800Z,43.95
2022-08-30T00:37:56.728Z,43.10
2022-08-30T00:40:27.865Z,34.72
2022-08-30T00:42:59.865Z,30.85
2022-08-30T00:45:33.318Z,31.25
2022-08-30T00:48:03.136Z,31.05
2022-08-30T00:50:36.753Z,29.42
2022-08-30T00:53:08.533Z,29.02
2022-08-30T00:55:38.923Z,24.20
2022-08-30T00:58:10.397Z,22.88
2022-08-30T01:00:40.132Z,24.42
2022-08-30T01:03:10.674Z,23.13
2022-08-30T01:05:40.832Z,25.30
2022-08-30T01:08:10.739Z,22.65
2022-08-30T01:10:40.666Z,23.27
2022-08-30T01:13:10.931Z,28.00
2022-08-30T01:15:40.593Z,25.00
2022-08-30T01:18:11.543Z,29.05
2022-08-30T01:20:52.073Z,28.30
2022-08-30T01:23:21.832Z,25.67
2022-08-30T01:25:52.195Z,29.80
2022-08-30T01:28:23.850Z,28.95
2022-08-30T01:30:53.621Z,25.80
2022-08-30T01:33:25.074Z,27.63
2022-08-30T01:35:55.497Z,27.48
2022-08-30T01:38:27.182Z,25.77
2022-08-30T01:41:23.028Z,44.20
2022-08-30T01:43:52.815Z,27.67
2022-08-30T01:46:23.624Z,25.33
2022-08-30T01:48:54.223Z,28.92
2022-08-30T01:51:24.385Z,28.50
2022-08-30T01:53:55.089Z,27.98
2022-08-30T01:56:25.236Z,30.15
2022-08-30T01:58:57.250Z,35.42
2022-08-30T02:01:30.354Z,31.05
2022-08-30T02:04:02.240Z,28.05
2022-08-30T02:06:32.002Z,34.17
2022-08-30T02:09:03.235Z,30.02
2022-08-30T02:11:33.249Z,33.00
2022-08-30T02:14:03.103Z,37.63
2022-08-30T02:16:33.575Z,29.75
2022-08-30T02:19:03.336Z,30.98
2022-08-30T02:21:33.236Z,30.80
2022-08-30T02:24:02.984Z,48.13
2022-08-30T02:26:32.665Z,48.25
2022-08-30T02:29:02.360Z,36.70
2022-08-30T02:31:32.121Z,30.65
2022-08-30T02:34:01.861Z,30.00
2022-08-30T02:36:31.494Z,31.90
2022-08-30T02:39:01.213Z,32.10
2022-08-30T02:41:31.159Z,37.50
2022-08-30T02:44:01.819Z,31.65
2022-08-30T02:46:33.350Z,31.15
2022-08-30T02:49:23.721Z,72.25
2022-08-30T02:51:55.258Z,33.58
2022-08-30T02:54:25.206Z,30.73
2022-08-30T02:56:58.938Z,55.20
2022-08-30T02:59:28.865Z,59.20
2022-08-30T03:01:58.649Z,56.72
2022-08-30T03:04:29.429Z,56.97
2022-08-30T03:07:00.462Z,57.78
2022-08-30T03:09:31.021Z,57.25
2022-08-30T03:12:01.856Z,52.35
2022-08-30T03:14:31.510Z,54.63
2022-08-30T03:17:01.356Z,51.72
2022-08-30T03:19:31.384Z,54.28
2022-08-30T03:22:02.444Z,59.00
2022-08-30T03:24:32.799Z,39.33
2022-08-30T03:27:14.815Z,47.08
2022-08-30T03:29:44.473Z,31.35
2022-08-30T03:32:14.356Z,28.80
2022-08-30T03:34:44.006Z,32.05
2022-08-30T03:37:13.986Z,30.58
2022-08-30T03:39:43.695Z,30.83
2022-08-30T03:42:18.151Z,34.30
2022-08-30T03:45:03.656Z,31.65
2022-08-30T03:47:34.677Z,31.58
2022-08-30T03:50:04.457Z,28.30
2022-08-30T03:52:34.357Z,30.23
2022-08-30T03:55:04.090Z,30.98
2022-08-30T03:57:33.848Z,31.50
2022-08-30T04:00:09.301Z,27.90
2022-08-30T04:02:39.191Z,29.25
2022-08-30T04:05:09.579Z,30.40
2022-08-30T04:07:39.896Z,26.50
2022-08-30T04:10:10.731Z,26.52
2022-08-30T04:12:40.570Z,26.00
2022-08-30T04:15:11.975Z,27.15
2022-08-30T04:17:41.993Z,19.48
2022-08-30T04:20:12.257Z,29.55
2022-08-30T04:22:42.176Z,24.50
2022-08-30T04:25:15.323Z,23.05
2022-08-30T04:27:46.435Z,22.85
2022-08-30T04:30:16.875Z,22.10
2022-08-30T04:32:46.930Z,22.27
2022-08-30T04:35:17.750Z,23.30
2022-08-30T04:37:47.447Z,21.65
2022-08-30T04:40:17.797Z,17.90
2022-08-30T04:42:47.479Z,21.58
2022-08-30T04:45:18.278Z,22.60
2022-08-30T04:47:47.932Z,19.35
2022-08-30T04:50:19.297Z,17.08
2022-08-30T04:52:49.361Z,23.48
2022-08-30T04:55:20.442Z,17.98
2022-08-30T04:57:50.426Z,15.95
2022-08-30T05:00:21.828Z,16.77
2022-08-30T05:02:53.825Z,15.35
2022-08-30T05:05:41.583Z,15.90
2022-08-30T05:08:13.927Z,14.60
2022-08-30T05:10:47.225Z,16.75
2022-08-30T05:13:17.487Z,18.13
2022-08-30T05:15:47.604Z,18.20
2022-08-30T05:18:18.355Z,17.17
2022-08-30T05:20:47.934Z,17.98
2022-08-30T05:23:17.861Z,15.45
2022-08-30T05:25:47.743Z,15.63
2022-08-30T05:28:17.697Z,14.55
2022-08-30T05:30:47.608Z,15.98
2022-08-30T05:33:17.341Z,15.98
2022-08-30T05:35:47.186Z,15.50
2022-08-30T05:38:17.068Z,18.60
2022-08-30T05:40:46.841Z,18.45
2022-08-30T05:43:16.408Z,17.45
2022-08-30T05:45:46.043Z,17.40
2022-08-30T05:48:16.837Z,8.90
2022-08-30T05:50:46.751Z,8.20
2022-08-30T05:53:20.405Z,8.43
2022-08-30T05:55:50.021Z,6.25
2022-08-30T05:58:19.837Z,8.98
2022-08-30T06:00:49.353Z,9.35
2022-08-30T06:03:19.323Z,11.57
2022-08-30T06:05:49.128Z,9.02
2022-08-30T06:08:19.988Z,9.75
2022-08-30T06:10:50.633Z,13.25
2022-08-30T06:13:20.658Z,12.90
2022-08-30T06:15:51.123Z,12.48
2022-08-30T06:18:21.615Z,8.90
2022-08-30T06:20:58.533Z,12.68
2022-08-30T06:23:28.294Z,13.35
2022-08-30T06:25:58.081Z,10.90
2022-08-30T06:28:27.825Z,10.38
2022-08-30T06:31:01.649Z,12.90
2022-08-30T06:33:32.440Z,9.80
2022-08-30T06:36:08.821Z,9.25
2022-08-30T06:38:38.578Z,10.68
2022-08-30T06:41:11.897Z,7.75
2022-08-30T06:43:44.401Z,19.83
2022-08-30T06:46:18.554Z,9.70
2022-08-30T06:48:48.679Z,9.32
2022-08-30T06:51:18.737Z,20.15
2022-08-30T06:53:50.256Z,14.18
2022-08-30T06:56:20.296Z,10.10
2022-08-30T06:58:49.945Z,9.55
2022-08-30T07:01:23.952Z,27.38
2022-08-30T07:03:54.762Z,13.77
2022-08-30T07:06:25.753Z,9.68
2022-08-30T07:08:56.911Z,10.05
2022-08-30T07:11:37.144Z,10.60
2022-08-30T07:14:06.894Z,8.20
2022-08-30T07:16:37.232Z,8.27
2022-08-30T07:19:07.282Z,7.35
2022-08-30T07:21:46.532Z,10.68
2022-08-30T07:24:16.111Z,22.50
2022-08-30T07:26:48.718Z,22.13
2022-08-30T07:29:18.779Z,14.95
2022-08-30T07:31:48.467Z,11.10
2022-08-30T07:34:22.418Z,15.20
2022-08-30T07:36:54.116Z,22.92
2022-08-30T07:39:23.967Z,8.35
2022-08-30T07:41:53.618Z,13.00
2022-08-30T07:44:23.274Z,13.88
2022-08-30T07:46:54.963Z,21.65
2022-08-30T07:49:24.951Z,10.70
2022-08-30T07:51:55.656Z,12.45
2022-08-30T07:54:25.350Z,20.88
2022-08-30T07:56:57.432Z,10.13
2022-08-30T07:59:27.153Z,8.60
2022-08-30T08:01:56.919Z,8.90
2022-08-30T08:04:27.687Z,10.32
2022-08-30T08:06:57.897Z,8.43
2022-08-30T08:09:28.109Z,9.73
2022-08-30T08:11:58.210Z,11.50
2022-08-30T08:14:27.952Z,6.97
2022-08-30T08:17:00.335Z,8.45
2022-08-30T08:19:30.044Z,8.38
2022-08-30T08:22:20.027Z,14.55
2022-08-30T08:24:51.118Z,9.60
2022-08-30T08:27:20.792Z,9.70
2022-08-30T08:29:50.341Z,16.35
2022-08-30T08:32:19.899Z,7.78
2022-08-30T08:34:49.506Z,9.30
2022-08-30T08:37:20.806Z,10.88
2022-08-30T08:39:54.032Z,11.18
2022-08-30T08:42:28.066Z,10.90
2022-08-30T08:45:00.938Z,10.63
2022-08-30T08:47:34.374Z,12.77
2022-08-30T08:50:04.838Z,8.18
2022-08-30T08:53:24.886Z,8.82
2022-08-30T08:56:00.569Z,9.73
2022-08-30T08:58:31.254Z,10.40
2022-08-30T09:01:01.207Z,6.63
2022-08-30T09:03:31.518Z,16.15
2022-08-30T09:06:02.178Z,13.80
2022-08-30T09:08:34.573Z,9.82
2022-08-30T09:11:04.914Z,12.48
2022-08-30T09:13:36.011Z,8.30
2022-08-30T09:16:06.989Z,6.57
2022-08-30T09:18:50.106Z,15.43
2022-08-30T09:21:27.237Z,16.98
2022-08-30T09:24:01.537Z,12.07
2022-08-30T09:26:34.378Z,7.57
2022-08-30T09:29:04.172Z,8.45
2022-08-30T09:31:34.940Z,7.55
2022-08-30T09:34:06.729Z,10.32
2022-08-30T09:36:36.362Z,8.27
2022-08-30T09:39:07.687Z,9.45
2022-08-30T09:41:39.732Z,7.50
2022-08-30T09:44:19.313Z,9.50
2022-08-30T09:49:31.549Z,8.63
2022-08-30T09:52:07.638Z,7.28
2022-08-30T09:54:57.652Z,9.93
2022-08-30T09:57:33.640Z,11.93
2022-08-30T10:00:13.958Z,10.63
2022-08-30T10:02:46.305Z,13.35
2022-08-30T10:05:19.016Z,10.50
2022-08-30T10:08:09.481Z,11.05
2022-08-30T10:10:45.797Z,7.47
2022-08-30T10:13:33.992Z,11.60
2022-08-30T10:16:22.124Z,17.63
2022-08-30T10:19:16.211Z,11.32
2022-08-30T10:21:57.438Z,14.70
2022-08-30T10:24:33.367Z,20.10
2022-08-30T10:27:14.399Z,17.33
2022-08-30T10:29:46.024Z,21.90
2022-08-30T10:32:15.886Z,19.13
2022-08-30T10:34:49.269Z,20.33
2022-08-30T10:37:27.122Z,24.88
2022-08-30T10:39:58.082Z,23.02
2022-08-30T10:42:28.562Z,20.85
2022-08-30T10:45:06.434Z,21.30
2022-08-30T10:47:43.505Z,22.83
2022-08-30T10:50:16.569Z,28.13
2022-08-30T10:53:01.531Z,32.78
2022-08-30T10:55:32.699Z,28.65
2022-08-30T10:58:06.388Z,27.85
2022-08-30T11:00:39.440Z,27.05
2022-08-30T11:03:14.659Z,30.38
2022-08-30T11:05:44.438Z,25.90
2022-08-30T11:08:22.045Z,28.48
2022-08-30T11:10:58.926Z,27.58
2022-08-30T11:13:30.384Z,25.45
2022-08-30T11:16:00.804Z,27.65
2022-08-30T11:18:31.652Z,29.73
2022-08-30T11:21:19.864Z,27.20
2022-08-30T11:24:11.142Z,23.55
2022-08-30T11:26:51.007Z,29.45
2022-08-30T11:29:29.975Z,27.70
2022-08-30T11:32:01.031Z,29.75
2022-08-30T11:34:49.026Z,37.45
2022-08-30T11:37:39.017Z,29.73
2022-08-30T11:40:15.744Z,31.20
2022-08-30T11:42:51.419Z,26.38
2022-08-30T11:45:28.221Z,31.17
2022-08-30T11:48:06.917Z,31.42
2022-08-30T11:50:54.224Z,32.15
2022-08-30T11:53:26.636Z,30.00
2022-08-30T11:56:08.265Z,28.63
2022-08-30T11:58:43.958Z,30.25
2022-08-30T12:01:40.918Z,32.08
2022-08-30T12:04:08.194Z,26.88
2022-08-30T12:06:45.168Z,33.53
2022-08-30T12:09:29.516Z,31.45
2022-08-30T12:12:06.149Z,31.00
2022-08-30T12:14:35.718Z,37.80
2022-08-30T12:17:23.817Z,29.27
2022-08-30T12:19:57.406Z,35.45
2022-08-30T12:22:31.861Z,33.50
2022-08-30T12:25:02.559Z,40.90
2022-08-30T12:27:34.575Z,35.45
2022-08-30T12:30:07.610Z,35.00
2022-08-30T12:32:37.197Z,34.08
2022-08-30T12:35:08.484Z,36.80
2022-08-30T12:37:42.153Z,35.20
2022-08-30T12:40:13.607Z,33.88
2022-08-30T12:43:01.982Z,37.70
2022-08-30T12:48:10.003Z,30.20
2022-08-30T12:50:41.334Z,35.50
2022-08-30T12:53:15.070Z,32.88
2022-08-30T12:56:02.444Z,31.58
2022-08-30T12:58:40.207Z,34.40
2022-08-30T13:01:16.572Z,28.17
2022-08-30T13:04:03.526Z,33.30
2022-08-30T13:06:59.945Z,28.88
2022-08-30T13:09:32.626Z,25.88
2022-08-30T13:12:04.732Z,29.45
2022-08-30T13:14:42.482Z,107.35
2022-08-30T13:17:16.456Z,30.13
2022-08-30T13:19:47.287Z,26.15
2022-08-30T13:22:31.105Z,27.02
2022-08-30T13:25:01.285Z,22.73
2022-08-30T13:27:31.493Z,24.48
2022-08-30T13:30:14.495Z,25.67
2022-08-30T13:32:48.021Z,25.25
2022-08-30T13:35:18.008Z,25.83
2022-08-30T13:37:51.641Z,23.38
2022-08-30T13:40:25.469Z,23.05
2022-08-30T13:42:55.891Z,21.00
2022-08-30T13:45:44.444Z,27.67
2022-08-30T13:48:17.276Z,26.25
2022-08-30T13:50:49.426Z,31.10
2022-08-30T13:53:51.716Z,26.30
2022-08-30T13:56:14.217Z,24.63
2022-08-30T13:58:44.357Z,23.60
2022-08-30T14:01:16.513Z,21.33
2022-08-30T14:06:37.191Z,20.98
2022-08-30T14:09:29.130Z,22.23
2022-08-30T14:12:02.028Z,26.15
2022-08-30T14:14:42.741Z,24.27
2022-08-30T14:17:13.686Z,25.35
2022-08-30T14:19:43.578Z,20.75
2022-08-30T14:22:13.185Z,32.45
2022-08-30T14:24:44.051Z,29.63
2022-08-30T14:27:13.622Z,23.00
2022-08-30T14:29:47.445Z,22.30
2022-08-30T14:32:17.222Z,22.98
2022-08-30T14:34:47.184Z,18.33
2022-08-30T14:37:18.297Z,20.98
2022-08-30T14:39:49.608Z,22.92
2022-08-30T14:42:19.382Z,23.35
2022-08-30T14:44:56.309Z,21.00
2022-08-30T14:47:29.767Z,23.77
2022-08-30T14:50:02.449Z,24.63
2022-08-30T14:52:33.267Z,16.30
2022-08-30T14:55:08.777Z,18.08
2022-08-30T14:57:39.889Z,22.05
2022-08-30T15:00:11.622Z,19.38
2022-08-30T15:02:42.309Z,15.98
2022-08-30T15:05:12.285Z,18.42
2022-08-30T15:07:44.074Z,19.60
2022-08-30T15:10:16.317Z,30.92
2022-08-30T15:12:46.093Z,18.48
2022-08-30T15:15:16.743Z,15.77
2022-08-30T15:17:46.414Z,18.63
2022-08-30T15:20:16.463Z,18.63
2022-08-30T15:22:46.330Z,21.33
2022-08-30T15:25:16.395Z,22.00
2022-08-30T15:27:47.359Z,24.08
2022-08-30T15:30:20.212Z,19.42
2022-08-30T15:32:50.195Z,16.98
2022-08-30T15:35:20.058Z,19.20
2022-08-30T15:37:52.433Z,20.90
2022-08-30T15:40:23.252Z,22.20
2022-08-30T15:42:56.095Z,17.25
2022-08-30T15:45:25.814Z,20.88
2022-08-30T15:47:56.535Z,19.92
2022-08-30T15:50:26.321Z,15.90
2022-08-30T15:52:56.000Z,20.17
2022-08-30T15:55:26.335Z,19.38
2022-08-30T15:57:56.083Z,20.63
2022-08-30T16:00:25.880Z,20.30
2022-08-30T16:02:55.551Z,21.50
2022-08-30T16:05:25.719Z,26.48
2022-08-30T16:07:55.923Z,17.70
2022-08-30T16:10:25.615Z,19.52
2022-08-30T16:13:01.389Z,23.35
2022-08-30T16:15:32.925Z,25.92
2022-08-30T16:18:02.831Z,26.75
2022-08-30T16:20:32.483Z,21.60
2022-08-30T16:23:02.573Z,19.83
2022-08-30T16:25:40.684Z,31.42
2022-08-30T16:28:11.219Z,30.13
2022-08-30T16:30:41.243Z,19.17
2022-08-30T16:33:13.667Z,18.15
2022-08-30T16:35:43.242Z,23.50
2022-08-30T16:38:15.341Z,21.88
2022-08-30T16:40:45.057Z,23.05
2022-08-30T16:43:15.942Z,21.60
2022-08-30T16:45:46.126Z,23.02
2022-08-30T16:48:18.197Z,21.38
2022-08-30T16:50:48.764Z,28.05
2022-08-30T16:53:18.596Z,21.92
2022-08-30T16:55:48.397Z,19.88
2022-08-30T16:58:19.122Z,22.58
2022-08-30T17:00:52.385Z,21.00
2022-08-30T17:03:22.117Z,23.30
2022-08-30T17:05:52.102Z,21.35
2022-08-30T17:08:27.946Z,25.42
2022-08-30T17:10:58.796Z,22.38
2022-08-30T17:13:30.073Z,22.80
2022-08-30T17:16:03.155Z,21.08
2022-08-30T17:18:33.651Z,19.58
2022-08-30T17:21:03.163Z,20.15
2022-08-30T17:23:32.854Z,21.83
2022-08-30T17:26:02.778Z,15.90
2022-08-30T17:28:32.471Z,18.77
2022-08-30T17:31:05.044Z,18.90
2022-08-30T17:33:40.417Z,17.35
2022-08-30T17:36:10.283Z,23.70
2022-08-30T17:38:44.796Z,15.05
2022-08-30T17:41:14.867Z,18.10
2022-08-30T17:43:45.736Z,17.83
2022-08-30T17:46:19.873Z,22.15
2022-08-30T17:48:58.072Z,18.42
2022-08-30T17:51:31.282Z,17.55
2022-08-30T17:54:02.321Z,18.80
2022-08-30T17:56:35.484Z,20.85
2022-08-30T17:59:07.585Z,25.63
2022-08-30T18:01:37.555Z,20.58
2022-08-30T18:04:07.152Z,22.98
2022-08-30T18:06:37.058Z,24.60
2022-08-30T18:09:07.478Z,23.60
2022-08-30T18:11:43.074Z,18.42
2022-08-30T18:14:13.009Z,18.85
2022-08-30T18:16:53.394Z,17.73
2022-08-30T18:19:27.899Z,23.02
2022-08-30T18:21:57.771Z,32.35
2022-08-30T18:24:27.728Z,20.90
2022-08-30T18:27:00.082Z,21.85
2022-08-30T18:29:32.395Z,19.27
2022-08-30T18:32:02.805Z,19.73
2022-08-30T18:34:33.038Z,17.27
2022-08-30T18:37:02.815Z,15.98
2022-08-30T18:39:34.651Z,15.50
2022-08-30T18:42:10.013Z,16.38
2022-08-30T18:44:43.563Z,27.00
2022-08-30T18:47:13.601Z,16.98
2022-08-30T18:49:43.994Z,14.63
2022-08-30T18:52:14.033Z,17.42
2022-08-30T18:54:52.650Z,15.60
2022-08-30T18:57:23.580Z,14.15
2022-08-30T18:59:53.210Z,19.45
2022-08-30T19:02:27.744Z,12.13
2022-08-30T19:04:57.510Z,18.92
2022-08-30T19:07:34.472Z,15.27
2022-08-30T19:10:06.999Z,18.60
2022-08-30T19:12:36.663Z,16.63
2022-08-30T19:15:10.902Z,15.10
2022-08-30T19:17:42.888Z,20.67
2022-08-30T19:20:12.887Z,18.15
2022-08-30T19:23:09.245Z,19.80
2022-08-30T19:25:33.830Z,21.90
2022-08-30T19:28:03.608Z,20.88
2022-08-30T19:30:36.908Z,18.95
2022-08-30T19:33:06.750Z,21.08
2022-08-30T19:35:41.363Z,22.00
2022-08-30T19:38:11.631Z,25.40
2022-08-30T19:40:41.384Z,24.50
2022-08-30T19:43:11.036Z,24.05
2022-08-30T19:45:40.775Z,21.88
2022-08-30T19:48:11.001Z,26.73
2022-08-30T19:50:40.758Z,23.35
2022-08-30T19:53:10.562Z,28.13
2022-08-30T19:55:40.671Z,30.60
2022-08-30T19:58:11.218Z,41.30
2022-08-30T20:00:53.018Z,39.70
2022-08-30T20:03:24.592Z,50.00
2022-08-30T20:05:54.298Z,41.35
2022-08-30T20:08:24.252Z,50.92
2022-08-30T20:10:55.084Z,31.13
2022-08-30T20:13:25.417Z,33.63
2022-08-30T20:15:58.745Z,30.73
2022-08-30T20:18:28.820Z,26.10
2022-08-30T20:21:01.029Z,31.73
2022-08-30T20:23:35.661Z,28.13
2022-08-30T20:26:07.106Z,23.15
2022-08-30T20:28:37.007Z,19.25
2022-08-30T20:31:07.059Z,20.38
2022-08-30T20:33:38.863Z,18.98
2022-08-30T20:36:08.870Z,17.30
2022-08-30T20:38:39.594Z,13.68
2022-08-30T20:41:13.189Z,16.27
2022-08-30T20:43:43.002Z,15.20
2022-08-30T20:46:12.944Z,15.95
2022-08-30T20:48:43.126Z,19.60
2022-08-30T20:51:13.880Z,13.65
2022-08-30T20:53:44.745Z,17.27
2022-08-30T20:56:15.294Z,15.32
2022-08-30T20:58:46.062Z,22.02
2022-08-30T21:01:15.880Z,18.05
2022-08-30T21:03:46.093Z,22.08
2022-08-30T21:06:17.646Z,14.32
2022-08-30T21:08:48.759Z,14.95
2022-08-30T21:11:18.484Z,15.85
2022-08-30T21:13:49.730Z,13.82
2022-08-30T21:16:20.437Z,12.60
2022-08-30T21:18:51.915Z,12.35
2022-08-30T21:21:22.657Z,13.30
2022-08-30T21:23:52.574Z,15.23
2022-08-30T21:26:22.291Z,15.68
2022-08-30T21:28:52.572Z,20.20
2022-08-30T21:31:23.554Z,19.75
2022-08-30T21:33:55.007Z,15.52
2022-08-30T21:36:43.318Z,16.85
2022-08-30T21:39:13.707Z,19.27
2022-08-30T21:41:43.451Z,19.55
2022-08-30T21:44:20.285Z,17.10
2022-08-30T21:46:50.385Z,21.02
2022-08-30T21:49:22.918Z,16.10
2022-08-30T21:51:52.715Z,17.77
2022-08-30T21:54:22.673Z,24.25
2022-08-30T21:56:53.196Z,18.65
2022-08-30T21:59:23.169Z,18.75
2022-08-30T22:01:53.093Z,18.65
2022-08-30T22:04:26.239Z,19.02
2022-08-30T22:06:56.326Z,16.05
2022-08-30T22:09:27.109Z,18.20
2022-08-30T22:11:56.782Z,15.40
2022-08-30T22:14:26.617Z,14.70
2022-08-30T22:16:57.033Z,16.75
2022-08-30T22:19:26.856Z,20.55
2022-08-30T22:22:01.740Z,18.35
2022-08-30T22:24:33.117Z,18.23
2022-08-30T22:27:03.853Z,20.02
2022-08-30T22:29:33.505Z,14.70
2022-08-30T22:32:04.430Z,18.20
2022-08-30T22:34:34.203Z,15.77
2022-08-30T22:37:04.893Z,17.33
2022-08-30T22:39:34.735Z,15.25
2022-08-30T22:42:04.740Z,20.25
2022-08-30T22:44:34.694Z,18.67
2022-08-30T22:47:04.730Z,16.63
2022-08-30T22:49:34.594Z,19.88
2022-08-30T22:52:08.420Z,17.67
2022-08-30T22:54:39.520Z,17.05
2022-08-30T22:57:09.221Z,26.60
2022-08-30T22:59:38.995Z,23.55
2022-08-30T23:02:08.951Z,17.25
2022-08-30T23:04:42.053Z,16.67
2022-08-30T23:07:12.305Z,16.23
2022-08-30T23:09:42.456Z,14.50
2022-08-30T23:12:12.428Z,18.33
2022-08-30T23:14:42.076Z,18.63
2022-08-30T23:17:11.707Z,19.73
2022-08-30T23:19:41.497Z,22.30
2022-08-30T23:22:11.310Z,21.52
2022-08-30T23:24:59.045Z,24.63
2022-08-30T23:27:47.513Z,21.15
2022-08-30T23:30:37.803Z,21.50
2022-08-30T23:33:27.964Z,15.07
2022-08-30T23:36:15.892Z,18.15
2022-08-30T23:39:03.540Z,13.48
2022-08-30T23:41:53.205Z,13.80
2022-08-30T23:44:40.761Z,18.27
2022-08-30T23:47:28.455Z,14.57
2022-08-30T23:50:19.335Z,17.73
2022-08-30T23:53:07.433Z,19.80
2022-08-30T23:55:58.192Z,21.08
2022-08-30T23:58:46.405Z,21.23
